sensor_id;sensor_type;location;lat;lon;timestamp;pressure;altitude;pressure_sealevel;temperature;humidity
33191;BME280;19554;42.652;23.364;2023-07-20T00:00:58;94299.63;;;27.42;40.22
33191;BME280;19554;42.652;23.364;2023-07-20T00:03:24;94307.75;;;27.56;40.58
33191;BME280;19554;42.652;23.364;2023-07-20T00:05:51;94308.94;;;27.52;40.51
33191;BME280;19554;42.652;23.364;2023-07-20T00:08:17;94269.63;;;27.21;40.54
33191;BME280;19554;42.652;23.364;2023-07-20T00:10:43;94235.63;;;27.07;41.19
33191;BME280;19554;42.652;23.364;2023-07-20T00:13:11;94271.50;;;27.31;41.17
33191;BME280;19554;42.652;23.364;2023-07-20T00:15:37;94312.81;;;27.58;41.80
33191;BME280;19554;42.652;23.364;2023-07-20T00:18:06;94307.44;;;27.44;41.35
33191;BME280;19554;42.652;23.364;2023-07-20T00:20:31;94320.88;;;27.24;41.74
33191;BME280;19554;42.652;23.364;2023-07-20T00:22:57;94311.69;;;26.85;42.49
33191;BME280;19554;42.652;23.364;2023-07-20T00:25:26;94289.16;;;26.49;43.09
33191;BME280;19554;42.652;23.364;2023-07-20T00:27:51;94304.78;;;26.52;43.09
33191;BME280;19554;42.652;23.364;2023-07-20T00:30:17;94304.06;;;26.30;43.65
33191;BME280;19554;42.652;23.364;2023-07-20T00:32:43;94302.06;;;26.38;43.04
33191;BME280;19554;42.652;23.364;2023-07-20T00:35:09;94293.09;;;26.37;43.09
33191;BME280;19554;42.652;23.364;2023-07-20T00:37:35;94300.06;;;26.56;42.77
33191;BME280;19554;42.652;23.364;2023-07-20T00:40:00;94300.81;;;26.67;42.40
33191;BME280;19554;42.652;23.364;2023-07-20T00:42:26;94239.91;;;26.35;42.67
33191;BME280;19554;42.652;23.364;2023-07-20T00:44:51;94292.56;;;26.78;42.39
33191;BME280;19554;42.652;23.364;2023-07-20T00:47:16;94294.13;;;26.76;42.31
33191;BME280;19554;42.652;23.364;2023-07-20T00:49:42;94284.78;;;26.62;42.48
33191;BME280;19554;42.652;23.364;2023-07-20T00:52:10;94276.66;;;26.41;43.18
33191;BME280;19554;42.652;23.364;2023-07-20T00:54:39;94290.38;;;26.30;43.44
33191;BME280;19554;42.652;23.364;2023-07-20T00:57:07;94294.72;;;25.74;45.76
33191;BME280;19554;42.652;23.364;2023-07-20T00:59:34;94279.53;;;25.48;46.43
33191;BME280;19554;42.652;23.364;2023-07-20T01:01:59;94276.03;;;25.51;46.41
33191;BME280;19554;42.652;23.364;2023-07-20T01:04:24;94286.56;;;25.42;46.90
33191;BME280;19554;42.652;23.364;2023-07-20T01:09:53;94281.09;;;25.56;46.66
33191;BME280;19554;42.652;23.364;2023-07-20T01:12:28;94272.13;;;25.23;47.38
33191;BME280;19554;42.652;23.364;2023-07-20T01:14:55;94306.47;;;25.39;47.66
33191;BME280;19554;42.652;23.364;2023-07-20T01:17:20;94310.75;;;25.47;47.20
33191;BME280;19554;42.652;23.364;2023-07-20T01:19:46;94316.63;;;25.60;46.58
33191;BME280;19554;42.652;23.364;2023-07-20T01:32:56;94283.06;;;25.31;49.94
33191;BME280;19554;42.652;23.364;2023-07-20T01:35:28;94297.09;;;25.25;50.51
33191;BME280;19554;42.652;23.364;2023-07-20T01:37:54;94301.41;;;25.34;50.26
33191;BME280;19554;42.652;23.364;2023-07-20T01:40:22;94304.13;;;25.30;50.70
33191;BME280;19554;42.652;23.364;2023-07-20T01:42:48;94306.47;;;25.35;50.27
33191;BME280;19554;42.652;23.364;2023-07-20T01:45:14;94296.31;;;25.28;50.55
33191;BME280;19554;42.652;23.364;2023-07-20T01:47:40;94290.84;;;25.36;50.11
33191;BME280;19554;42.652;23.364;2023-07-20T01:50:06;94262.75;;;25.14;50.30
33191;BME280;19554;42.652;23.364;2023-07-20T01:52:32;94298.66;;;25.41;50.16
33191;BME280;19554;42.652;23.364;2023-07-20T01:54:57;94290.47;;;25.44;50.00
33191;BME280;19554;42.652;23.364;2023-07-20T01:57:23;94300.22;;;25.49;50.27
33191;BME280;19554;42.652;23.364;2023-07-20T01:59:48;94265.47;;;25.42;49.88
33191;BME280;19554;42.652;23.364;2023-07-20T02:02:14;94286.16;;;25.68;49.55
33191;BME280;19554;42.652;23.364;2023-07-20T02:04:39;94280.31;;;25.81;49.33
33191;BME280;19554;42.652;23.364;2023-07-20T02:07:05;94285.41;;;25.82;49.30
33191;BME280;19554;42.652;23.364;2023-07-20T02:09:30;94266.63;;;25.73;48.82
33191;BME280;19554;42.652;23.364;2023-07-20T02:11:56;94272.09;;;25.81;48.84
33191;BME280;19554;42.652;23.364;2023-07-20T02:14:21;94265.06;;;25.72;48.95
33191;BME280;19554;42.652;23.364;2023-07-20T02:16:48;94281.47;;;25.87;48.70
33191;BME280;19554;42.652;23.364;2023-07-20T02:19:17;94243.97;;;25.69;48.67
33191;BME280;19554;42.652;23.364;2023-07-20T02:21:42;94278.38;;;25.88;48.87
33191;BME280;19554;42.652;23.364;2023-07-20T02:24:07;94288.50;;;25.88;48.59
33191;BME280;19554;42.652;23.364;2023-07-20T02:26:33;94247.13;;;25.57;48.81
33191;BME280;19554;42.652;23.364;2023-07-20T02:28:58;94276.38;;;25.67;49.53
33191;BME280;19554;42.652;23.364;2023-07-20T02:31:24;94283.03;;;25.70;49.31
33191;BME280;19554;42.652;23.364;2023-07-20T02:33:49;94284.59;;;25.67;48.92
33191;BME280;19554;42.652;23.364;2023-07-20T02:36:14;94276.81;;;25.59;49.02
33191;BME280;19554;42.652;23.364;2023-07-20T02:38:42;94275.25;;;25.50;49.31
33191;BME280;19554;42.652;23.364;2023-07-20T02:41:07;94280.69;;;25.43;49.67
33191;BME280;19554;42.652;23.364;2023-07-20T02:43:32;94276.81;;;25.41;49.60
33191;BME280;19554;42.652;23.364;2023-07-20T02:45:58;94260.41;;;25.41;49.89
33191;BME280;19554;42.652;23.364;2023-07-20T02:48:23;94261.19;;;25.38;49.89
33191;BME280;19554;42.652;23.364;2023-07-20T02:50:49;94258.84;;;25.33;50.42
33191;BME280;19554;42.652;23.364;2023-07-20T02:53:14;94248.69;;;25.22;50.54
33191;BME280;19554;42.652;23.364;2023-07-20T02:55:39;94205.72;;;24.91;50.83
33191;BME280;19554;42.652;23.364;2023-07-20T02:58:05;94194.81;;;24.91;50.45
33191;BME280;19554;42.652;23.364;2023-07-20T03:00:30;94254.16;;;25.33;50.00
33191;BME280;19554;42.652;23.364;2023-07-20T03:02:56;94256.91;;;25.44;49.91
33191;BME280;19554;42.652;23.364;2023-07-20T03:05:24;94253.75;;;25.49;50.01
33191;BME280;19554;42.652;23.364;2023-07-20T03:07:53;94255.72;;;25.52;49.44
33191;BME280;19554;42.652;23.364;2023-07-20T03:10:18;94242.84;;;25.38;49.36
33191;BME280;19554;42.652;23.364;2023-07-20T03:12:44;94259.63;;;25.40;49.48
33191;BME280;19554;42.652;23.364;2023-07-20T03:15:09;94260.78;;;25.43;49.36
33191;BME280;19554;42.652;23.364;2023-07-20T03:17:35;94258.06;;;25.39;48.87
33191;BME280;19554;42.652;23.364;2023-07-20T03:20:00;94258.06;;;25.28;48.83
33191;BME280;19554;42.652;23.364;2023-07-20T03:22:26;94278.38;;;25.24;49.04
33191;BME280;19554;42.652;23.364;2023-07-20T03:24:52;94271.72;;;25.21;49.06
33191;BME280;19554;42.652;23.364;2023-07-20T03:27:18;94276.78;;;25.23;49.03
33191;BME280;19554;42.652;23.364;2023-07-20T03:29:44;94252.56;;;25.07;49.15
33191;BME280;19554;42.652;23.364;2023-07-20T03:32:09;94283.06;;;25.27;49.03
33191;BME280;19554;42.652;23.364;2023-07-20T03:34:35;94282.28;;;25.26;49.07
33191;BME280;19554;42.652;23.364;2023-07-20T03:37:00;94278.38;;;25.31;49.12
33191;BME280;19554;42.652;23.364;2023-07-20T03:39:26;94265.88;;;25.34;48.96
33191;BME280;19554;42.652;23.364;2023-07-20T03:41:51;94283.81;;;25.42;49.02
33191;BME280;19554;42.652;23.364;2023-07-20T03:44:17;94267.44;;;25.38;48.79
33191;BME280;19554;42.652;23.364;2023-07-20T03:46:43;94284.22;;;25.65;48.43
33191;BME280;19554;42.652;23.364;2023-07-20T03:49:08;94280.72;;;25.61;48.60
33191;BME280;19554;42.652;23.364;2023-07-20T03:51:35;94279.91;;;25.79;47.97
33191;BME280;19554;42.652;23.364;2023-07-20T03:54:01;94286.16;;;25.90;47.48
33191;BME280;19554;42.652;23.364;2023-07-20T03:56:26;94239.34;;;25.23;48.58
33191;BME280;19554;42.652;23.364;2023-07-20T03:58:51;94284.63;;;25.71;48.35
33191;BME280;19554;42.652;23.364;2023-07-20T04:01:17;94286.94;;;25.87;47.87
33191;BME280;19554;42.652;23.364;2023-07-20T04:03:43;94290.44;;;26.05;47.54
33191;BME280;19554;42.652;23.364;2023-07-20T04:06:08;94291.53;;;26.33;46.66
33191;BME280;19554;42.652;23.364;2023-07-20T04:08:34;94295.41;;;26.53;46.37
33191;BME280;19554;42.652;23.364;2023-07-20T04:11:01;94283.56;;;26.78;45.69
33191;BME280;19554;42.652;23.364;2023-07-20T04:13:27;94278.75;;;26.96;44.73
33191;BME280;19554;42.652;23.364;2023-07-20T04:15:53;94282.19;;;27.18;43.98
33191;BME280;19554;42.652;23.364;2023-07-20T04:18:18;94281.78;;;27.20;44.05
33191;BME280;19554;42.652;23.364;2023-07-20T04:20:44;94279.56;;;26.89;44.59
33191;BME280;19554;42.652;23.364;2023-07-20T04:23:10;94277.97;;;26.99;45.15
33191;BME280;19554;42.652;23.364;2023-07-20T04:25:35;94272.34;;;27.21;45.04
33191;BME280;19554;42.652;23.364;2023-07-20T04:28:04;94270.69;;;27.34;44.85
33191;BME280;19554;42.652;23.364;2023-07-20T04:30:34;94269.81;;;27.48;44.41
33191;BME280;19554;42.652;23.364;2023-07-20T04:32:59;94265.78;;;27.63;44.48
33191;BME280;19554;42.652;23.364;2023-07-20T04:36:03;94267.63;;;27.77;43.86
33191;BME280;19554;42.652;23.364;2023-07-20T04:38:28;94249.72;;;27.61;44.29
33191;BME280;19554;42.652;23.364;2023-07-20T04:40:54;94268.47;;;27.22;45.00
33191;BME280;19554;42.652;23.364;2023-07-20T04:43:19;94245.25;;;27.33;45.21
33191;BME280;19554;42.652;23.364;2023-07-20T04:45:45;94255.69;;;27.53;44.19
33191;BME280;19554;42.652;23.364;2023-07-20T04:48:12;94256.84;;;26.96;45.54
33191;BME280;19554;42.652;23.364;2023-07-20T04:50:38;94179.88;;;26.80;45.13
33191;BME280;19554;42.652;23.364;2023-07-20T04:53:05;94256.34;;;27.15;45.45
33191;BME280;19554;42.652;23.364;2023-07-20T04:55:30;94261.47;;;27.06;45.15
33191;BME280;19554;42.652;23.364;2023-07-20T04:57:59;94263.78;;;27.19;45.17
33191;BME280;19554;42.652;23.364;2023-07-20T05:00:25;94189.78;;;26.59;45.19
33191;BME280;19554;42.652;23.364;2023-07-20T05:02:50;94254.19;;;27.41;44.36
33191;BME280;19554;42.652;23.364;2023-07-20T05:05:16;94260.25;;;27.67;43.37
33191;BME280;19554;42.652;23.364;2023-07-20T05:07:41;94246.50;;;28.11;41.80
33191;BME280;19554;42.652;23.364;2023-07-20T05:10:07;94256.84;;;28.00;42.13
33191;BME280;19554;42.652;23.364;2023-07-20T05:12:33;94247.38;;;27.60;42.70
33191;BME280;19554;42.652;23.364;2023-07-20T05:14:58;94233.53;;;27.78;42.20
33191;BME280;19554;42.652;23.364;2023-07-20T05:17:23;94265.56;;;28.26;41.28
33191;BME280;19554;42.652;23.364;2023-07-20T05:19:50;94258.78;;;28.34;41.75
33191;BME280;19554;42.652;23.364;2023-07-20T05:22:15;94248.13;;;28.74;40.50
33191;BME280;19554;42.652;23.364;2023-07-20T05:24:41;94243.25;;;28.85;40.40
33191;BME280;19554;42.652;23.364;2023-07-20T05:27:06;94254.63;;;28.56;41.24
33191;BME280;19554;42.652;23.364;2023-07-20T05:29:32;94252.56;;;28.95;40.45
33191;BME280;19554;42.652;23.364;2023-07-20T05:31:58;94244.00;;;28.89;40.65
33191;BME280;19554;42.652;23.364;2023-07-20T05:34:23;94259.66;;;28.92;40.26
33191;BME280;19554;42.652;23.364;2023-07-20T05:37:07;94268.47;;;29.11;39.78
33191;BME280;19554;42.652;23.364;2023-07-20T05:39:33;94264.78;;;29.21;39.42
33191;BME280;19554;42.652;23.364;2023-07-20T05:41:58;94268.94;;;29.56;38.75
33191;BME280;19554;42.652;23.364;2023-07-20T05:44:24;94252.34;;;29.63;38.86
33191;BME280;19554;42.652;23.364;2023-07-20T05:46:49;94274.59;;;29.96;37.88
33191;BME280;19554;42.652;23.364;2023-07-20T05:49:14;94279.91;;;29.83;38.22
33191;BME280;19554;42.652;23.364;2023-07-20T05:51:40;94270.09;;;29.82;38.34
33191;BME280;19554;42.652;23.364;2023-07-20T05:54:05;94239.81;;;29.59;38.89
33191;BME280;19554;42.652;23.364;2023-07-20T05:56:31;94231.31;;;29.49;38.80
33191;BME280;19554;42.652;23.364;2023-07-20T05:58:57;94275.81;;;29.44;39.27
33191;BME280;19554;42.652;23.364;2023-07-20T06:01:22;94278.69;;;29.37;39.12
33191;BME280;19554;42.652;23.364;2023-07-20T06:03:47;94263.72;;;29.38;38.92
33191;BME280;19554;42.652;23.364;2023-07-20T06:06:13;94262.38;;;29.23;39.19
33191;BME280;19554;42.652;23.364;2023-07-20T06:08:40;94233.56;;;29.08;38.97
33191;BME280;19554;42.652;23.364;2023-07-20T06:11:05;94266.22;;;29.29;38.82
33191;BME280;19554;42.652;23.364;2023-07-20T06:13:30;94268.91;;;29.60;38.25
33191;BME280;19554;42.652;23.364;2023-07-20T06:15:56;94275.50;;;29.66;38.04
33191;BME280;19554;42.652;23.364;2023-07-20T06:18:24;94268.78;;;29.67;37.91
33191;BME280;19554;42.652;23.364;2023-07-20T06:20:51;94262.56;;;29.63;38.06
33191;BME280;19554;42.652;23.364;2023-07-20T06:23:18;94259.22;;;29.75;38.06
33191;BME280;19554;42.652;23.364;2023-07-20T06:25:44;94255.56;;;30.05;37.74
33191;BME280;19554;42.652;23.364;2023-07-20T06:28:09;94251.13;;;30.31;37.48
33191;BME280;19554;42.652;23.364;2023-07-20T06:30:34;94239.50;;;30.63;37.26
33191;BME280;19554;42.652;23.364;2023-07-20T06:33:00;94242.13;;;30.87;36.46
33191;BME280;19554;42.652;23.364;2023-07-20T06:35:25;94246.03;;;30.89;36.45
33191;BME280;19554;42.652;23.364;2023-07-20T06:37:51;94248.66;;;30.77;36.71
33191;BME280;19554;42.652;23.364;2023-07-20T06:40:17;94247.28;;;31.05;36.48
33191;BME280;19554;42.652;23.364;2023-07-20T06:42:43;94244.94;;;31.39;35.29
33191;BME280;19554;42.652;23.364;2023-07-20T06:45:08;94245.09;;;31.65;34.22
33191;BME280;19554;42.652;23.364;2023-07-20T06:47:34;94234.75;;;31.36;34.66
33191;BME280;19554;42.652;23.364;2023-07-20T06:49:59;94255.75;;;31.30;35.38
33191;BME280;19554;42.652;23.364;2023-07-20T06:52:25;94254.88;;;31.17;35.59
33191;BME280;19554;42.652;23.364;2023-07-20T06:54:50;94254.66;;;30.91;35.98
33191;BME280;19554;42.652;23.364;2023-07-20T06:57:16;94218.38;;;30.57;36.58
33191;BME280;19554;42.652;23.364;2023-07-20T06:59:41;94253.81;;;30.75;36.85
33191;BME280;19554;42.652;23.364;2023-07-20T07:02:07;94256.06;;;30.60;37.08
33191;BME280;19554;42.652;23.364;2023-07-20T07:04:33;94274.66;;;30.76;37.13
33191;BME280;19554;42.652;23.364;2023-07-20T07:06:59;94262.38;;;30.60;37.56
33191;BME280;19554;42.652;23.364;2023-07-20T07:09:25;94269.53;;;30.78;37.52
33191;BME280;19554;42.652;23.364;2023-07-20T07:11:50;94282.88;;;30.79;37.07
33191;BME280;19554;42.652;23.364;2023-07-20T07:14:15;94262.31;;;30.64;38.00
33191;BME280;19554;42.652;23.364;2023-07-20T07:16:41;94256.22;;;30.53;37.98
33191;BME280;19554;42.652;23.364;2023-07-20T07:19:06;94293.09;;;30.59;38.31
33191;BME280;19554;42.652;23.364;2023-07-20T07:21:33;94298.31;;;30.33;38.67
33191;BME280;19554;42.652;23.364;2023-07-20T07:23:58;94316.59;;;30.24;38.85
33191;BME280;19554;42.652;23.364;2023-07-20T07:26:25;94317.22;;;30.31;38.17
33191;BME280;19554;42.652;23.364;2023-07-20T07:28:50;94315.19;;;30.55;37.62
33191;BME280;19554;42.652;23.364;2023-07-20T07:31:16;94310.59;;;30.49;38.00
33191;BME280;19554;42.652;23.364;2023-07-20T07:33:41;94303.88;;;30.69;37.68
33191;BME280;19554;42.652;23.364;2023-07-20T07:36:07;94306.66;;;30.89;37.61
33191;BME280;19554;42.652;23.364;2023-07-20T07:38:32;94310.91;;;30.74;37.62
33191;BME280;19554;42.652;23.364;2023-07-20T07:40:58;94306.59;;;30.93;37.17
33191;BME280;19554;42.652;23.364;2023-07-20T07:43:24;94301.50;;;31.11;37.00
33191;BME280;19554;42.652;23.364;2023-07-20T07:45:49;94297.19;;;30.90;36.87
33191;BME280;19554;42.652;23.364;2023-07-20T07:48:15;94287.56;;;30.59;38.06
33191;BME280;19554;42.652;23.364;2023-07-20T07:50:40;94307.50;;;30.66;37.73
33191;BME280;19554;42.652;23.364;2023-07-20T07:53:06;94284.69;;;30.86;36.92
33191;BME280;19554;42.652;23.364;2023-07-20T07:55:32;94264.75;;;30.98;37.00
33191;BME280;19554;42.652;23.364;2023-07-20T07:57:58;94259.81;;;31.26;36.92
33191;BME280;19554;42.652;23.364;2023-07-20T08:00:23;94273.44;;;30.97;36.56
33191;BME280;19554;42.652;23.364;2023-07-20T08:02:50;94277.56;;;30.49;37.45
33191;BME280;19554;42.652;23.364;2023-07-20T08:05:16;94267.97;;;30.57;37.61
33191;BME280;19554;42.652;23.364;2023-07-20T08:07:41;94187.00;;;30.11;37.49
33191;BME280;19554;42.652;23.364;2023-07-20T08:10:07;94288.06;;;30.93;37.72
33191;BME280;19554;42.652;23.364;2023-07-20T08:12:33;94299.13;;;31.10;37.72
33191;BME280;19554;42.652;23.364;2023-07-20T08:14:58;94300.03;;;31.23;36.80
33191;BME280;19554;42.652;23.364;2023-07-20T08:17:24;94319.25;;;31.63;36.92
33191;BME280;19554;42.652;23.364;2023-07-20T08:19:49;94238.16;;;31.24;36.55
33191;BME280;19554;42.652;23.364;2023-07-20T08:22:15;94324.94;;;31.72;36.50
33191;BME280;19554;42.652;23.364;2023-07-20T08:24:41;94317.16;;;31.51;36.69
33191;BME280;19554;42.652;23.364;2023-07-20T08:27:07;94270.13;;;31.22;36.55
33191;BME280;19554;42.652;23.364;2023-07-20T08:29:33;94316.22;;;31.57;36.64
33191;BME280;19554;42.652;23.364;2023-07-20T08:31:59;94316.75;;;31.85;37.33
33191;BME280;19554;42.652;23.364;2023-07-20T08:34:24;94311.34;;;31.98;37.62
33191;BME280;19554;42.652;23.364;2023-07-20T08:36:49;94314.06;;;31.81;37.02
33191;BME280;19554;42.652;23.364;2023-07-20T08:39:15;94328.41;;;31.76;36.97
33191;BME280;19554;42.652;23.364;2023-07-20T08:41:42;94339.41;;;31.44;37.46
33191;BME280;19554;42.652;23.364;2023-07-20T08:44:08;94322.25;;;31.36;36.86
33191;BME280;19554;42.652;23.364;2023-07-20T08:46:35;94310.53;;;31.32;36.24
33191;BME280;19554;42.652;23.364;2023-07-20T08:49:03;94316.09;;;31.28;35.63
33191;BME280;19554;42.652;23.364;2023-07-20T08:51:30;94310.56;;;31.28;35.06
33191;BME280;19554;42.652;23.364;2023-07-20T08:53:56;94323.88;;;31.33;34.91
33191;BME280;19554;42.652;23.364;2023-07-20T08:56:23;94296.41;;;30.90;35.19
33191;BME280;19554;42.652;23.364;2023-07-20T08:58:51;94308.09;;;30.98;35.03
33191;BME280;19554;42.652;23.364;2023-07-20T09:01:18;94286.09;;;30.74;35.28
33191;BME280;19554;42.652;23.364;2023-07-20T09:03:45;94293.00;;;30.62;34.05
33191;BME280;19554;42.652;23.364;2023-07-20T09:06:10;94285.44;;;30.66;34.52
33191;BME280;19554;42.652;23.364;2023-07-20T09:08:39;94259.25;;;30.58;34.38
33191;BME280;19554;42.652;23.364;2023-07-20T09:11:05;94279.06;;;30.53;34.75
33191;BME280;19554;42.652;23.364;2023-07-20T09:13:33;94287.66;;;30.55;34.60
33191;BME280;19554;42.652;23.364;2023-07-20T09:15:59;94290.69;;;30.61;34.45
33191;BME280;19554;42.652;23.364;2023-07-20T09:18:25;94262.00;;;30.58;34.29
33191;BME280;19554;42.652;23.364;2023-07-20T09:20:51;94277.63;;;30.85;34.17
33191;BME280;19554;42.652;23.364;2023-07-20T09:23:16;94273.66;;;30.86;34.36
33191;BME280;19554;42.652;23.364;2023-07-20T09:25:42;94283.22;;;30.81;34.30
33191;BME280;19554;42.652;23.364;2023-07-20T09:28:07;94239.97;;;30.38;34.35
33191;BME280;19554;42.652;23.364;2023-07-20T09:30:32;94275.44;;;30.76;34.45
33191;BME280;19554;42.652;23.364;2023-07-20T09:32:59;94267.16;;;30.96;33.84
33191;BME280;19554;42.652;23.364;2023-07-20T09:35:25;94207.75;;;30.75;33.41
33191;BME280;19554;42.652;23.364;2023-07-20T09:38:01;94273.50;;;31.29;32.86
33191;BME280;19554;42.652;23.364;2023-07-20T09:40:27;94274.00;;;31.24;32.44
33191;BME280;19554;42.652;23.364;2023-07-20T09:42:54;94267.50;;;31.34;31.71
33191;BME280;19554;42.652;23.364;2023-07-20T09:45:49;94278.34;;;31.25;31.91
33191;BME280;19554;42.652;23.364;2023-07-20T09:48:14;94195.53;;;30.76;31.95
33191;BME280;19554;42.652;23.364;2023-07-20T09:50:41;94270.63;;;31.53;31.14
33191;BME280;19554;42.652;23.364;2023-07-20T09:53:11;94263.03;;;31.73;30.25
33191;BME280;19554;42.652;23.364;2023-07-20T09:55:37;94243.16;;;31.78;30.26
33191;BME280;19554;42.652;23.364;2023-07-20T09:58:03;94241.97;;;31.96;30.51
33191;BME280;19554;42.652;23.364;2023-07-20T10:00:32;94234.72;;;31.85;31.26
33191;BME280;19554;42.652;23.364;2023-07-20T10:03:00;94230.91;;;31.79;31.56
33191;BME280;19554;42.652;23.364;2023-07-20T10:05:35;94229.38;;;31.78;31.51
33191;BME280;19554;42.652;23.364;2023-07-20T10:08:02;94239.03;;;31.86;31.08
33191;BME280;19554;42.652;23.364;2023-07-20T10:10:31;94239.56;;;31.65;30.74
33191;BME280;19554;42.652;23.364;2023-07-20T10:12:57;94233.03;;;31.43;29.50
33191;BME280;19554;42.652;23.364;2023-07-20T10:15:33;94230.72;;;31.21;29.85
33191;BME280;19554;42.652;23.364;2023-07-20T10:20:36;94239.28;;;31.27;30.68
33191;BME280;19554;42.652;23.364;2023-07-20T10:23:04;94214.88;;;31.09;30.36
33191;BME280;19554;42.652;23.364;2023-07-20T10:25:30;94217.28;;;31.07;29.69
33191;BME280;19554;42.652;23.364;2023-07-20T10:27:57;94225.53;;;30.90;30.69
33191;BME280;19554;42.652;23.364;2023-07-20T10:30:24;94266.22;;;31.03;31.05
33191;BME280;19554;42.652;23.364;2023-07-20T10:32:51;94252.75;;;30.88;30.79
33191;BME280;19554;42.652;23.364;2023-07-20T10:35:17;94248.63;;;30.97;31.04
33191;BME280;19554;42.652;23.364;2023-07-20T10:43:00;94249.75;;;30.99;31.01
33191;BME280;19554;42.652;23.364;2023-07-20T10:45:53;94252.00;;;31.04;31.34
33191;BME280;19554;42.652;23.364;2023-07-20T10:50:45;94195.41;;;31.00;31.99
33191;BME280;19554;42.652;23.364;2023-07-20T10:53:19;94165.59;;;30.95;32.27
33191;BME280;19554;42.652;23.364;2023-07-20T10:55:44;94187.47;;;30.85;32.96
33191;BME280;19554;42.652;23.364;2023-07-20T10:58:13;94213.88;;;31.19;32.20
33191;BME280;19554;42.652;23.364;2023-07-20T11:01:00;94206.81;;;31.34;31.47
33191;BME280;19554;42.652;23.364;2023-07-20T11:03:39;94195.06;;;31.30;31.54
33191;BME280;19554;42.652;23.364;2023-07-20T11:08:55;94172.84;;;31.21;31.92
33191;BME280;19554;42.652;23.364;2023-07-20T11:11:30;94171.38;;;31.16;31.91
33191;BME280;19554;42.652;23.364;2023-07-20T11:14:23;94172.84;;;31.05;32.74
33191;BME280;19554;42.652;23.364;2023-07-20T11:16:49;94146.97;;;30.82;32.69
33191;BME280;19554;42.652;23.364;2023-07-20T11:19:21;94164.22;;;31.03;33.11
33191;BME280;19554;42.652;23.364;2023-07-20T11:21:58;94178.69;;;31.07;31.75
33191;BME280;19554;42.652;23.364;2023-07-20T11:24:24;94173.03;;;30.98;33.02
33191;BME280;19554;42.652;23.364;2023-07-20T11:26:50;94164.41;;;30.96;32.74
33191;BME280;19554;42.652;23.364;2023-07-20T11:29:17;94169.25;;;31.08;33.06
33191;BME280;19554;42.652;23.364;2023-07-20T11:31:44;94111.84;;;31.03;32.55
33191;BME280;19554;42.652;23.364;2023-07-20T11:34:12;94158.69;;;31.52;32.67
33191;BME280;19554;42.652;23.364;2023-07-20T11:36:40;94151.94;;;31.69;32.76
33191;BME280;19554;42.652;23.364;2023-07-20T11:39:08;94102.47;;;31.62;32.19
33191;BME280;19554;42.652;23.364;2023-07-20T11:41:34;94142.00;;;32.17;32.41
33191;BME280;19554;42.652;23.364;2023-07-20T11:43:59;94128.97;;;32.30;31.87
33191;BME280;19554;42.652;23.364;2023-07-20T11:46:27;94137.97;;;32.47;31.19
33191;BME280;19554;42.652;23.364;2023-07-20T11:48:57;94103.91;;;32.25;31.60
33191;BME280;19554;42.652;23.364;2023-07-20T11:51:23;94136.72;;;32.36;31.40
33191;BME280;19554;42.652;23.364;2023-07-20T11:53:49;94127.25;;;31.78;32.56
33191;BME280;19554;42.652;23.364;2023-07-20T11:56:14;94123.81;;;31.91;32.65
33191;BME280;19554;42.652;23.364;2023-07-20T11:58:44;94122.25;;;31.90;32.73
33191;BME280;19554;42.652;23.364;2023-07-20T12:01:09;94083.47;;;31.35;33.50
33191;BME280;19554;42.652;23.364;2023-07-20T12:03:36;94112.72;;;31.61;33.60
33191;BME280;19554;42.652;23.364;2023-07-20T12:06:08;94118.88;;;31.53;33.50
33191;BME280;19554;42.652;23.364;2023-07-20T12:08:34;94106.44;;;31.61;33.46
33191;BME280;19554;42.652;23.364;2023-07-20T12:11:00;94104.84;;;31.76;32.84
33191;BME280;19554;42.652;23.364;2023-07-20T12:13:44;94099.97;;;31.97;32.25
33191;BME280;19554;42.652;23.364;2023-07-20T12:16:14;94101.31;;;32.05;32.48
33191;BME280;19554;42.652;23.364;2023-07-20T12:18:41;94094.03;;;32.11;32.52
33191;BME280;19554;42.652;23.364;2023-07-20T12:21:07;94041.38;;;31.76;32.04
33191;BME280;19554;42.652;23.364;2023-07-20T12:23:41;94100.03;;;32.22;31.77
33191;BME280;19554;42.652;23.364;2023-07-20T12:26:08;94097.13;;;32.13;31.33
33191;BME280;19554;42.652;23.364;2023-07-20T12:28:38;94100.69;;;32.26;30.67
33191;BME280;19554;42.652;23.364;2023-07-20T12:31:04;94094.94;;;32.33;30.16
33191;BME280;19554;42.652;23.364;2023-07-20T12:33:30;94099.47;;;32.40;29.07
33191;BME280;19554;42.652;23.364;2023-07-20T12:35:55;94091.56;;;32.42;29.19
33191;BME280;19554;42.652;23.364;2023-07-20T12:38:21;94089.56;;;32.43;28.95
33191;BME280;19554;42.652;23.364;2023-07-20T12:40:46;94083.19;;;32.59;29.67
33191;BME280;19554;42.652;23.364;2023-07-20T12:43:11;94089.13;;;32.44;28.71
33191;BME280;19554;42.652;23.364;2023-07-20T12:45:37;94083.88;;;32.33;29.50
33191;BME280;19554;42.652;23.364;2023-07-20T12:48:02;94092.34;;;32.43;29.06
33191;BME280;19554;42.652;23.364;2023-07-20T12:50:28;94079.31;;;32.56;28.85
33191;BME280;19554;42.652;23.364;2023-07-20T12:52:53;94086.25;;;32.61;28.25
33191;BME280;19554;42.652;23.364;2023-07-20T12:55:18;94073.13;;;32.52;26.52
33191;BME280;19554;42.652;23.364;2023-07-20T12:57:46;94078.53;;;32.55;25.63
33191;BME280;19554;42.652;23.364;2023-07-20T13:00:13;94081.50;;;32.61;25.49
33191;BME280;19554;42.652;23.364;2023-07-20T13:02:39;94084.47;;;32.54;26.52
33191;BME280;19554;42.652;23.364;2023-07-20T13:05:05;94020.16;;;32.15;26.11
33191;BME280;19554;42.652;23.364;2023-07-20T13:07:32;94072.22;;;32.55;25.94
33191;BME280;19554;42.652;23.364;2023-07-20T13:09:59;94072.31;;;32.64;26.21
33191;BME280;19554;42.652;23.364;2023-07-20T13:12:29;94067.38;;;32.59;27.35
33191;BME280;19554;42.652;23.364;2023-07-20T13:14:55;94064.38;;;32.53;28.04